createdAt,value
2019-06-26T00:00:23.285Z,10.70
2019-06-26T00:02:55.430Z,10.58
2019-06-26T00:05:27.407Z,9.50
2019-06-26T00:07:59.452Z,10.48
2019-06-26T00:10:31.348Z,10.32
2019-06-26T00:13:04.731Z,11.08
2019-06-26T00:15:36.730Z,10.70
2019-06-26T00:18:08.831Z,11.08
2019-06-26T00:20:40.798Z,12.13
2019-06-26T00:23:12.766Z,11.57
2019-06-26T00:25:44.694Z,11.03
2019-06-26T00:28:16.777Z,11.40
2019-06-26T00:30:48.768Z,11.50
2019-06-26T00:33:20.749Z,10.85
2019-06-26T00:35:53.065Z,11.22
2019-06-26T00:38:25.147Z,11.20
2019-06-26T00:40:57.058Z,11.43
2019-06-26T00:43:42.062Z,11.20
2019-06-26T00:46:09.055Z,11.30
2019-06-26T00:48:41.467Z,12.28
2019-06-26T00:51:13.446Z,10.98
2019-06-26T00:53:45.342Z,11.68
2019-06-26T00:56:17.289Z,12.10
2019-06-26T00:58:49.485Z,12.50
2019-06-26T01:01:21.466Z,12.37
2019-06-26T01:03:55.060Z,12.82
2019-06-26T01:06:45.245Z,12.43
2019-06-26T01:09:17.377Z,12.53
2019-06-26T01:11:49.425Z,12.28
2019-06-26T01:14:21.401Z,13.25
2019-06-26T01:16:53.383Z,12.73
2019-06-26T01:19:25.423Z,13.43
2019-06-26T01:21:57.317Z,11.63
2019-06-26T01:24:29.393Z,11.80
2019-06-26T01:27:01.306Z,11.22
2019-06-26T01:29:33.270Z,10.75
2019-06-26T01:32:06.725Z,10.98
2019-06-26T01:34:38.858Z,10.70
2019-06-26T01:37:11.825Z,10.85
2019-06-26T01:39:44.584Z,11.20
2019-06-26T01:42:16.499Z,12.75
2019-06-26T01:44:48.535Z,11.10
2019-06-26T01:47:20.442Z,12.35
2019-06-26T01:49:52.424Z,12.33
2019-06-26T01:52:24.250Z,10.50
2019-06-26T01:54:56.272Z,12.82
2019-06-26T01:57:28.281Z,12.25
2019-06-26T02:00:00.283Z,12.23
2019-06-26T02:02:32.353Z,12.75
2019-06-26T02:05:06.395Z,11.57
2019-06-26T02:07:38.374Z,12.63
2019-06-26T02:10:10.931Z,12.82
2019-06-26T02:12:43.146Z,12.80
2019-06-26T02:15:16.218Z,11.43
2019-06-26T02:17:48.203Z,13.38
2019-06-26T02:20:20.285Z,13.55
2019-06-26T02:22:52.589Z,12.73
2019-06-26T02:25:24.487Z,12.75
2019-06-26T02:27:56.842Z,12.53
2019-06-26T02:30:28.851Z,13.10
2019-06-26T02:33:00.991Z,13.95
2019-06-26T02:35:33.125Z,14.33
2019-06-26T02:38:05.063Z,16.55
2019-06-26T02:40:37.214Z,15.53
2019-06-26T02:43:09.736Z,13.85
2019-06-26T02:45:42.016Z,13.00
2019-06-26T02:48:14.089Z,13.25
2019-06-26T02:50:46.128Z,12.82
2019-06-26T02:53:18.195Z,12.25
2019-06-26T02:55:50.231Z,12.18
2019-06-26T02:58:22.146Z,13.48
2019-06-26T03:00:54.342Z,13.95
2019-06-26T03:03:26.488Z,14.85
2019-06-26T03:05:58.415Z,14.60
2019-06-26T03:08:30.388Z,15.30
2019-06-26T03:11:02.484Z,16.57
2019-06-26T03:13:34.304Z,15.43
2019-06-26T03:16:06.486Z,15.28
2019-06-26T03:18:38.648Z,17.10
2019-06-26T03:21:10.680Z,17.57
2019-06-26T03:23:42.687Z,20.92
2019-06-26T03:26:14.665Z,17.12
2019-06-26T03:28:46.671Z,15.48
2019-06-26T03:31:18.725Z,16.52
2019-06-26T03:33:50.816Z,16.05
2019-06-26T03:36:23.002Z,14.60
2019-06-26T03:38:55.035Z,15.15
2019-06-26T03:41:27.147Z,16.48
2019-06-26T03:43:58.990Z,15.78
2019-06-26T03:46:31.095Z,15.63
2019-06-26T03:49:03.000Z,16.52
2019-06-26T03:51:35.066Z,17.30
2019-06-26T03:54:07.140Z,18.30
2019-06-26T03:56:39.098Z,18.02
2019-06-26T03:59:11.105Z,16.82
2019-06-26T04:01:43.316Z,18.30
2019-06-26T04:04:15.392Z,14.63
2019-06-26T04:06:47.393Z,17.90
2019-06-26T04:09:19.416Z,18.02
2019-06-26T04:11:51.422Z,16.17
2019-06-26T04:14:23.382Z,16.60
2019-06-26T04:16:55.601Z,18.73
2019-06-26T04:19:27.697Z,17.10
2019-06-26T04:21:59.739Z,16.52
2019-06-26T04:24:31.733Z,18.87
2019-06-26T04:27:03.860Z,16.48
2019-06-26T04:29:35.854Z,15.23
2019-06-26T04:32:09.085Z,13.55
2019-06-26T04:34:40.838Z,15.28
2019-06-26T04:37:12.813Z,15.08
2019-06-26T04:39:44.766Z,15.83
2019-06-26T04:42:16.746Z,13.98
2019-06-26T04:44:48.752Z,15.78
2019-06-26T04:47:20.585Z,14.53
2019-06-26T04:49:52.588Z,14.38
2019-06-26T04:52:24.517Z,13.40
2019-06-26T04:54:56.679Z,13.40
2019-06-26T04:57:28.579Z,14.25
2019-06-26T05:00:00.490Z,13.03
2019-06-26T05:02:32.465Z,12.37
2019-06-26T05:05:06.556Z,12.68
2019-06-26T05:07:38.748Z,12.93
2019-06-26T05:10:11.098Z,11.50
2019-06-26T05:12:43.159Z,11.18
2019-06-26T05:15:15.522Z,12.43
2019-06-26T05:17:47.492Z,12.18
2019-06-26T05:20:19.526Z,11.55
2019-06-26T05:22:51.825Z,11.63
2019-06-26T05:25:23.632Z,11.45
2019-06-26T05:27:55.846Z,11.45
2019-06-26T05:30:27.986Z,12.13
2019-06-26T05:33:00.219Z,11.73
2019-06-26T05:35:35.023Z,11.20
2019-06-26T05:38:06.153Z,10.98
2019-06-26T05:40:38.207Z,13.98
2019-06-26T05:43:10.181Z,12.68
2019-06-26T05:45:42.132Z,12.30
2019-06-26T05:48:14.287Z,11.75
2019-06-26T05:50:46.407Z,10.88
2019-06-26T05:53:18.379Z,11.90
2019-06-26T05:55:50.332Z,11.10
2019-06-26T05:58:22.348Z,12.53
2019-06-26T06:00:55.397Z,10.15
2019-06-26T06:03:27.450Z,11.25
2019-06-26T06:05:59.486Z,9.98
2019-06-26T06:08:31.464Z,10.88
2019-06-26T06:11:03.549Z,11.25
2019-06-26T06:13:35.575Z,11.15
2019-06-26T06:16:07.548Z,10.95
2019-06-26T06:18:39.588Z,11.60
2019-06-26T06:21:11.499Z,11.28
2019-06-26T06:23:43.335Z,11.35
2019-06-26T06:26:15.493Z,11.33
2019-06-26T06:28:47.566Z,11.65
2019-06-26T06:31:20.831Z,11.78
2019-06-26T06:33:52.841Z,11.48
2019-06-26T06:36:25.979Z,11.63
2019-06-26T06:38:57.874Z,11.78
2019-06-26T06:41:29.807Z,11.10
2019-06-26T06:44:01.813Z,11.85
2019-06-26T06:46:33.956Z,11.18
2019-06-26T06:49:06.032Z,10.50
2019-06-26T06:51:38.311Z,11.10
2019-06-26T06:54:10.366Z,9.83
2019-06-26T06:56:42.533Z,13.25
2019-06-26T06:59:14.498Z,12.65
2019-06-26T07:01:46.457Z,11.15
2019-06-26T07:04:18.543Z,11.88
2019-06-26T07:06:50.438Z,10.63
2019-06-26T07:09:24.855Z,11.45
2019-06-26T07:11:56.897Z,11.15
2019-06-26T07:14:29.037Z,11.20
2019-06-26T07:17:01.601Z,10.95
2019-06-26T07:19:33.829Z,11.33
2019-06-26T07:22:07.549Z,10.85
2019-06-26T07:24:39.539Z,11.10
2019-06-26T07:27:11.547Z,9.85
2019-06-26T07:29:43.379Z,10.55
2019-06-26T07:32:15.413Z,10.58
2019-06-26T07:34:47.822Z,10.72
2019-06-26T07:37:20.330Z,10.23
2019-06-26T07:39:52.377Z,11.50
2019-06-26T07:42:24.402Z,10.68
2019-06-26T07:44:57.687Z,10.28
2019-06-26T07:47:42.415Z,9.58
2019-06-26T07:50:03.394Z,9.75
2019-06-26T07:52:35.823Z,9.85
2019-06-26T07:55:11.772Z,9.30
2019-06-26T07:57:43.247Z,9.50
2019-06-26T08:00:16.192Z,9.80
2019-06-26T08:02:48.746Z,9.50
2019-06-26T08:05:21.053Z,8.68
2019-06-26T08:07:58.536Z,9.33
2019-06-26T08:10:33.558Z,9.10
2019-06-26T08:13:05.666Z,8.45
2019-06-26T08:15:37.634Z,8.25
2019-06-26T08:18:09.509Z,8.00
2019-06-26T08:20:55.491Z,6.87
2019-06-26T08:23:15.145Z,7.30
2019-06-26T08:25:47.189Z,8.50
2019-06-26T08:28:19.255Z,8.35
2019-06-26T08:30:51.381Z,7.33
2019-06-26T08:33:23.357Z,7.42
2019-06-26T08:35:55.474Z,10.28
2019-06-26T08:38:27.358Z,7.00
2019-06-26T08:40:59.357Z,6.40
2019-06-26T08:43:31.668Z,5.72
2019-06-26T08:46:03.605Z,8.15
2019-06-26T08:48:40.027Z,6.30
2019-06-26T08:51:09.264Z,6.08
2019-06-26T08:53:41.540Z,6.50
2019-06-26T08:56:13.612Z,5.53
2019-06-26T08:58:45.507Z,5.33
2019-06-26T09:01:17.538Z,6.80
2019-06-26T09:03:49.494Z,5.80
2019-06-26T09:06:21.560Z,5.85
2019-06-26T09:08:53.548Z,5.83
2019-06-26T09:11:25.685Z,6.33
2019-06-26T09:13:58.142Z,5.20
2019-06-26T09:16:30.236Z,5.58
2019-06-26T09:19:02.270Z,5.28
2019-06-26T09:21:42.526Z,7.17
2019-06-26T09:24:15.015Z,5.78
2019-06-26T09:26:46.983Z,6.30
2019-06-26T09:29:19.235Z,5.83
2019-06-26T09:31:51.207Z,7.15
2019-06-26T09:34:23.441Z,5.17
2019-06-26T09:36:55.470Z,5.92
2019-06-26T09:39:27.720Z,5.72
2019-06-26T09:41:59.761Z,5.17
2019-06-26T09:44:31.643Z,6.12
2019-06-26T09:47:03.725Z,6.12
2019-06-26T09:49:35.746Z,5.60
2019-06-26T09:52:07.715Z,5.65
2019-06-26T09:54:39.832Z,6.15
2019-06-26T09:57:11.824Z,6.33
2019-06-26T09:59:43.767Z,6.28
2019-06-26T10:02:15.912Z,5.85
2019-06-26T10:04:47.928Z,6.05
2019-06-26T10:07:20.004Z,5.70
2019-06-26T10:09:52.001Z,5.45
2019-06-26T10:12:23.969Z,5.97
2019-06-26T10:14:55.891Z,7.17
2019-06-26T10:17:27.834Z,6.25
2019-06-26T10:19:59.771Z,6.65
2019-06-26T10:22:31.734Z,5.83
2019-06-26T10:25:04.416Z,6.92
2019-06-26T10:27:36.550Z,6.85
2019-06-26T10:30:09.476Z,6.60
2019-06-26T10:32:41.423Z,6.03
2019-06-26T10:35:13.969Z,6.22
2019-06-26T10:37:45.998Z,5.78
2019-06-26T10:40:18.722Z,6.78
2019-06-26T10:42:51.132Z,6.12
2019-06-26T10:45:23.299Z,6.03
2019-06-26T10:47:55.399Z,8.45
2019-06-26T10:50:27.398Z,6.40
2019-06-26T10:53:00.281Z,7.20
2019-06-26T10:55:32.315Z,6.70
2019-06-26T10:58:04.329Z,6.33
2019-06-26T11:00:36.592Z,6.28
2019-06-26T11:03:08.597Z,6.37
2019-06-26T11:05:41.425Z,6.33
2019-06-26T11:08:13.381Z,10.65
2019-06-26T11:10:45.352Z,8.03
2019-06-26T11:13:17.367Z,6.60
2019-06-26T11:15:49.637Z,5.90
2019-06-26T11:18:21.508Z,5.85
2019-06-26T11:20:53.414Z,5.28
2019-06-26T11:23:25.426Z,5.55
2019-06-26T11:25:57.420Z,5.85
2019-06-26T11:28:29.417Z,5.72
2019-06-26T11:31:01.302Z,5.75
2019-06-26T11:33:33.268Z,5.37
2019-06-26T11:36:05.234Z,5.80
2019-06-26T11:38:37.254Z,5.45
2019-06-26T11:41:09.225Z,6.05
2019-06-26T11:43:41.173Z,5.47
2019-06-26T11:46:13.613Z,4.85
2019-06-26T11:48:45.819Z,4.78
2019-06-26T11:51:19.057Z,4.10
2019-06-26T11:53:51.152Z,10.55
2019-06-26T11:56:23.281Z,4.90
2019-06-26T11:58:56.934Z,6.78
2019-06-26T12:01:29.361Z,6.65
2019-06-26T12:04:01.316Z,6.00
2019-06-26T12:06:33.288Z,5.42
2019-06-26T12:09:08.961Z,5.15
2019-06-26T12:11:41.179Z,6.70
2019-06-26T12:14:13.302Z,5.17
2019-06-26T12:16:45.534Z,4.65
2019-06-26T12:19:20.892Z,5.12
2019-06-26T12:21:51.117Z,5.28
2019-06-26T12:24:26.334Z,4.92
2019-06-26T12:26:56.750Z,4.83
2019-06-26T12:29:31.992Z,5.40
2019-06-26T12:32:02.509Z,4.87
2019-06-26T12:34:34.384Z,3.77
2019-06-26T12:37:06.418Z,4.65
2019-06-26T12:39:38.354Z,3.47
2019-06-26T12:42:10.320Z,4.75
2019-06-26T12:44:42.272Z,4.90
2019-06-26T12:47:14.324Z,4.80
2019-06-26T12:49:46.198Z,4.80
2019-06-26T12:52:18.345Z,4.40
2019-06-26T12:54:50.293Z,5.05
2019-06-26T12:57:22.258Z,4.97
2019-06-26T12:59:57.721Z,4.62
2019-06-26T13:02:27.797Z,4.55
2019-06-26T13:04:59.744Z,4.55
2019-06-26T13:07:32.408Z,5.75
2019-06-26T13:10:07.617Z,4.65
2019-06-26T13:12:39.825Z,5.15
2019-06-26T13:15:12.973Z,4.65
2019-06-26T13:17:45.114Z,4.15
2019-06-26T13:20:17.141Z,5.08
2019-06-26T13:22:49.742Z,4.60
2019-06-26T13:25:21.757Z,4.20
2019-06-26T13:27:55.135Z,3.87
2019-06-26T13:30:34.605Z,4.22
2019-06-26T13:33:06.638Z,3.65
2019-06-26T13:35:38.651Z,4.67
2019-06-26T13:38:10.683Z,3.90
2019-06-26T13:40:42.692Z,3.05
2019-06-26T13:43:14.600Z,3.42
2019-06-26T13:45:46.625Z,3.60
2019-06-26T13:48:18.596Z,2.95
2019-06-26T13:50:50.854Z,3.65
2019-06-26T13:53:25.756Z,3.08
2019-06-26T13:55:57.715Z,3.98
2019-06-26T13:58:29.744Z,3.40
2019-06-26T14:01:01.708Z,3.92
2019-06-26T14:03:33.744Z,3.40
2019-06-26T14:06:05.627Z,3.83
2019-06-26T14:08:37.599Z,3.85
2019-06-26T14:11:10.136Z,4.15
2019-06-26T14:13:42.289Z,4.00
2019-06-26T14:16:14.182Z,3.77
2019-06-26T14:18:46.183Z,3.27
2019-06-26T14:21:25.568Z,3.60
2019-06-26T14:23:51.883Z,4.42
2019-06-26T14:26:23.893Z,4.15
2019-06-26T14:28:56.161Z,4.25
2019-06-26T14:31:28.487Z,4.62
2019-06-26T14:34:00.451Z,4.67
2019-06-26T14:36:33.667Z,4.78
2019-06-26T14:39:07.301Z,4.33
2019-06-26T14:41:39.402Z,4.10
2019-06-26T14:44:11.434Z,3.92
2019-06-26T14:46:43.388Z,4.92
2019-06-26T14:49:16.414Z,3.70
2019-06-26T14:51:49.364Z,4.00
2019-06-26T14:54:21.393Z,4.37
2019-06-26T14:56:53.280Z,3.05
2019-06-26T14:59:25.302Z,3.87
2019-06-26T15:01:57.167Z,3.85
2019-06-26T15:04:29.211Z,4.60
2019-06-26T15:07:01.227Z,3.83
2019-06-26T15:09:33.198Z,4.28
2019-06-26T15:12:05.144Z,4.92
2019-06-26T15:14:37.114Z,4.83
2019-06-26T15:17:09.121Z,5.15
2019-06-26T15:19:41.207Z,4.05
2019-06-26T15:22:14.139Z,5.17
2019-06-26T15:24:46.113Z,5.10
2019-06-26T15:27:17.993Z,4.65
2019-06-26T15:29:49.951Z,4.90
2019-06-26T15:32:21.896Z,4.92
2019-06-26T15:34:53.786Z,4.62
2019-06-26T15:40:02.527Z,3.77
2019-06-26T15:42:34.545Z,5.40
2019-06-26T15:45:09.550Z,4.90
2019-06-26T15:47:41.554Z,5.47
2019-06-26T15:50:14.820Z,4.90
2019-06-26T15:52:46.763Z,5.08
2019-06-26T15:55:18.722Z,5.20
2019-06-26T15:57:50.656Z,4.05
2019-06-26T16:00:22.777Z,5.80
2019-06-26T16:02:55.215Z,4.42
2019-06-26T16:05:27.246Z,4.33
2019-06-26T16:07:59.179Z,4.47
2019-06-26T16:10:34.456Z,5.10
2019-06-26T16:13:05.150Z,4.80
2019-06-26T16:15:37.601Z,4.47
2019-06-26T16:18:09.377Z,4.80
2019-06-26T16:20:41.348Z,4.22
2019-06-26T16:23:13.800Z,4.17
2019-06-26T16:25:45.781Z,4.75
2019-06-26T16:28:17.871Z,3.72
2019-06-26T16:30:49.765Z,4.53
2019-06-26T16:33:21.772Z,4.65
2019-06-26T16:35:53.807Z,4.58
2019-06-26T16:38:25.764Z,4.40
2019-06-26T16:40:57.812Z,4.75
2019-06-26T16:43:29.624Z,4.25
2019-06-26T16:46:01.714Z,4.20
2019-06-26T16:48:33.732Z,4.50
2019-06-26T16:51:05.791Z,4.47
2019-06-26T16:53:37.893Z,5.00
2019-06-26T16:56:09.992Z,4.10
2019-06-26T16:58:41.876Z,3.72
2019-06-26T17:01:13.768Z,4.40
2019-06-26T17:03:45.792Z,4.33
2019-06-26T17:06:17.823Z,4.85
2019-06-26T17:08:50.103Z,4.22
2019-06-26T17:11:22.165Z,4.92
2019-06-26T17:13:54.050Z,4.95
2019-06-26T17:16:25.941Z,4.55
2019-06-26T17:18:57.912Z,4.90
2019-06-26T17:21:30.058Z,4.83
2019-06-26T17:24:02.000Z,4.90
2019-06-26T17:26:33.887Z,3.70
2019-06-26T17:29:05.835Z,4.47
2019-06-26T17:31:37.887Z,4.70
2019-06-26T17:34:09.844Z,4.42
2019-06-26T17:36:41.813Z,5.17
2019-06-26T17:39:13.795Z,4.85
2019-06-26T17:41:45.964Z,5.40
2019-06-26T17:44:18.825Z,4.97
2019-06-26T17:46:50.779Z,4.78
2019-06-26T17:49:22.757Z,5.00
2019-06-26T17:51:54.734Z,4.45
2019-06-26T17:54:29.652Z,5.35
2019-06-26T17:57:01.603Z,5.17
2019-06-26T17:59:33.759Z,6.20
2019-06-26T18:02:06.943Z,5.65
2019-06-26T18:04:39.011Z,5.83
2019-06-26T18:07:10.947Z,5.87
2019-06-26T18:09:42.901Z,5.30
2019-06-26T18:12:15.255Z,5.47
2019-06-26T18:14:47.109Z,5.53
2019-06-26T18:17:22.425Z,6.25
2019-06-26T18:19:53.991Z,5.83
2019-06-26T18:22:26.112Z,5.87
2019-06-26T18:24:58.128Z,6.25
2019-06-26T18:27:30.166Z,6.55
2019-06-26T18:30:03.151Z,5.92
2019-06-26T18:32:35.326Z,6.35
2019-06-26T18:35:08.544Z,5.95
2019-06-26T18:37:40.433Z,5.10
2019-06-26T18:40:12.844Z,5.85
2019-06-26T18:42:45.906Z,5.30
2019-06-26T18:45:18.341Z,6.08
2019-06-26T18:47:50.386Z,5.45
2019-06-26T18:50:22.524Z,6.15
2019-06-26T18:52:54.562Z,6.22
2019-06-26T18:55:26.425Z,5.80
2019-06-26T18:57:58.303Z,5.87
2019-06-26T19:00:30.179Z,6.00
2019-06-26T19:03:02.161Z,5.95
2019-06-26T19:05:34.568Z,5.53
2019-06-26T19:08:06.672Z,7.05
2019-06-26T19:10:38.700Z,6.62
2019-06-26T19:13:10.881Z,5.60
2019-06-26T19:15:42.975Z,6.80
2019-06-26T19:18:15.437Z,6.40
2019-06-26T19:20:47.380Z,6.47
2019-06-26T19:23:20.482Z,5.85
2019-06-26T19:25:52.578Z,4.92
2019-06-26T19:28:24.554Z,6.67
2019-06-26T19:30:56.765Z,6.95
2019-06-26T19:33:28.866Z,5.62
2019-06-26T19:36:01.054Z,6.20
2019-06-26T19:38:33.065Z,6.08
2019-06-26T19:41:08.523Z,7.03
2019-06-26T19:43:40.405Z,6.10
2019-06-26T19:46:12.355Z,6.28
2019-06-26T19:48:44.236Z,7.05
2019-06-26T19:51:16.344Z,6.28
2019-06-26T19:53:48.315Z,6.53
2019-06-26T19:56:20.336Z,5.75
2019-06-26T19:58:52.290Z,5.08
2019-06-26T20:01:24.776Z,5.47
2019-06-26T20:03:57.007Z,5.85
2019-06-26T20:06:29.097Z,5.45
2019-06-26T20:09:04.500Z,5.15
2019-06-26T20:11:36.674Z,5.85
2019-06-26T20:14:08.808Z,5.87
2019-06-26T20:16:40.962Z,5.58
2019-06-26T20:19:12.966Z,5.40
2019-06-26T20:21:45.159Z,6.20
2019-06-26T20:24:17.127Z,5.30
2019-06-26T20:26:49.124Z,6.55
2019-06-26T20:29:21.124Z,6.00
2019-06-26T20:31:53.040Z,5.75
2019-06-26T20:34:25.699Z,5.50
2019-06-26T20:36:57.719Z,4.67
2019-06-26T20:39:29.987Z,5.03
2019-06-26T20:42:03.063Z,5.37
2019-06-26T20:44:35.827Z,5.72
2019-06-26T20:47:07.966Z,5.40
2019-06-26T20:49:52.773Z,5.50
2019-06-26T20:52:16.849Z,5.87
2019-06-26T20:55:01.020Z,5.95
2019-06-26T20:57:26.286Z,5.05
2019-06-26T20:59:58.285Z,5.17
2019-06-26T21:02:30.298Z,7.10
2019-06-26T21:05:02.350Z,5.97
2019-06-26T21:07:34.424Z,5.72
2019-06-26T21:10:06.862Z,6.53
2019-06-26T21:12:38.756Z,5.65
2019-06-26T21:15:10.846Z,5.80
2019-06-26T21:17:42.860Z,6.10
2019-06-26T21:20:16.167Z,5.22
2019-06-26T21:22:48.516Z,5.50
2019-06-26T21:25:20.596Z,6.10
2019-06-26T21:27:52.532Z,4.62
2019-06-26T21:30:24.458Z,5.87
2019-06-26T21:32:56.599Z,4.25
2019-06-26T21:35:28.526Z,5.20
2019-06-26T21:38:00.395Z,4.90
2019-06-26T21:40:32.339Z,5.72
2019-06-26T21:43:04.277Z,5.25
2019-06-26T21:45:36.201Z,4.55
2019-06-26T21:48:08.139Z,5.40
2019-06-26T21:50:40.078Z,4.30
2019-06-26T21:53:12.013Z,4.62
2019-06-26T21:55:44.427Z,4.85
2019-06-26T21:58:33.991Z,4.33
2019-06-26T22:01:23.948Z,4.95
2019-06-26T22:04:14.063Z,4.30
2019-06-26T22:06:47.727Z,4.75
2019-06-26T22:09:37.476Z,4.50
2019-06-26T22:12:09.622Z,5.45
2019-06-26T22:14:41.713Z,3.87
2019-06-26T22:17:13.705Z,4.70
2019-06-26T22:19:45.802Z,4.53
2019-06-26T22:22:17.857Z,4.50
2019-06-26T22:24:49.868Z,4.83
2019-06-26T22:27:21.786Z,4.40
2019-06-26T22:29:54.124Z,5.12
2019-06-26T22:32:26.190Z,4.75
2019-06-26T22:34:58.483Z,4.20
2019-06-26T22:37:33.500Z,4.28
2019-06-26T22:40:07.183Z,4.78
2019-06-26T22:42:39.331Z,5.00
2019-06-26T22:45:11.713Z,5.25
2019-06-26T22:47:44.076Z,4.55
2019-06-26T22:50:16.227Z,4.97
2019-06-26T22:52:49.198Z,4.58
2019-06-26T22:55:21.272Z,4.00
2019-06-26T22:57:53.286Z,4.90
2019-06-26T23:00:25.682Z,4.30
2019-06-26T23:02:57.803Z,3.90
2019-06-26T23:05:29.739Z,4.90
2019-06-26T23:08:01.670Z,4.65
2019-06-26T23:10:33.781Z,4.40
2019-06-26T23:13:09.370Z,3.72
2019-06-26T23:15:39.606Z,3.60
2019-06-26T23:18:12.683Z,3.12
2019-06-26T23:20:44.643Z,3.10
2019-06-26T23:23:16.642Z,3.45
2019-06-26T23:25:48.506Z,2.17
2019-06-26T23:28:20.584Z,2.25
2019-06-26T23:30:52.517Z,2.55
2019-06-26T23:33:24.388Z,2.35
2019-06-26T23:35:56.422Z,2.33
2019-06-26T23:38:28.306Z,2.60
2019-06-26T23:41:00.306Z,2.60
2019-06-26T23:43:32.438Z,2.62
2019-06-26T23:46:04.506Z,1.95
2019-06-26T23:48:36.624Z,1.72
2019-06-26T23:51:08.479Z,1.55
2019-06-26T23:53:40.383Z,2.22
2019-06-26T23:56:12.251Z,1.98
2019-06-26T23:58:44.160Z,2.55
